Wawanesa, Canada
Current Conditions -  °F | °C
As of 12:20 AM on Wednesday 28 Jan 2015 (Local Time) from CYBR Reporting Station
Moderate Fog Moderate Fog  
Wind Chill: 16°   Ceiling: 200
Heat Index: 28°   Visibility: 0.5mi
Dew Point: 28°   Wind: 18mph
Humidity: 100%   Direction: 70°ENE
Pressure: 29.84"   Gusts: NA
Location:  49.52°N, 99.68°W
Report Text: CYBR 280620Z 07016KT 1/2SM FZFG VV002 M02/M02 A2984 RMK FG8 SLP129
Loading
Personal Weather Stations






























Interactive Weather Map New forecast layout! Learn more

10-Day Weather Forecast

Advertisements
Track Severe Weather on mobile